Nearby METAR Reports

 

K1V6 - Canon City, Colorado, USA
Distance from station: NE 34mi, 55km
Updated: 02/28/2024 1:55pm MST
Clear
Clear
 Wind from E
Wind: E 10 mph , 17 km/h
Temperature: 50°F , 10°C
Wind Chill: 46°F , 8°C
Dew Point: 23°F , -5°C
Humidity: 35%
Barometer: 30.08 inHg , 1018.6 hPa
Clouds: Clear
Visibility: 10 miles , 16 km
2024/02/28 20:55 K1V6 282055Z AUTO 08009KT 10SM CLR 10/M05 A3008 RMK AO2
K04V - Saguache Muni, Colorado, USA
Distance from station: W 35mi, 56km
Updated: 02/28/2024 2:15pm MST
Clear
Clear
 Wind from SSE
Wind: SSE 6 mph , 9 km/h
Temperature: 37°F , 3°C
Wind Chill: 32°F , 0°C
Dew Point: 3°F , -16°C
Humidity: 23%
Barometer: 30.22 inHg , 1023.4 hPa
Clouds: Clear
Visibility: 10 miles , 16 km
2024/02/28 21:15 K04V 282115Z AUTO 15005KT 10SM CLR 03/M16 A3022 RMK AO2
 
KANK - Salida, Colorado, USA
Distance from station: NW 43mi, 69km
Updated: 02/28/2024 2:15pm MST
Clear
Clear
 Wind from SW
Wind: SW 20 mph , 31 km/h, Gust: 23 mph , 37 km/h
Temperature: 46°F , 8°C
Wind Chill: 38°F , 3°C
Dew Point: 3°F , -16°C
Humidity: 17%
Barometer: 30.10 inHg , 1019.3 hPa
Clouds: Clear
Visibility: 10 miles , 16 km
2024/02/28 21:15 KANK 282115Z AUTO 22017G20KT 10SM CLR 08/M16 A3010 RMK AO2 T00751160
KVTP - La Veta Pass, Colorado, USA
Distance from station: SSE 44mi, 71km
Updated: 02/28/2024 2:15pm MST
Clear
Clear
 Wind from W
Wind: W 13 mph , 20 km/h
Temperature: 28°F , -2°C
Wind Chill: 17°F , -8°C
Dew Point: -2°F , -19°C
Humidity: 26%
Barometer: 30.28 inHg , 1025.4 hPa
Clouds: Clear
Visibility: 10 miles , 16 km
2024/02/28 21:15 KVTP 282115Z AUTO 27011KT 10SM CLR M02/M19 A3028 RMK AO2
 
KALS - Alamosa, Colorado, USA
Distance from station: SSW 48mi, 77km
Updated: 02/28/2024 1:52pm MST
Clear
Clear
 Wind from varies
Wind: varies 6 mph , 9 km/h
Temperature: 39°F , 4°C
Wind Chill: 35°F , 2°C
Dew Point: -0°F , -18°C
Humidity: 18%
Barometer: 30.19 inHg , 1022.4 hPa
Clouds: Clear
Visibility: 10 miles , 16 km
2024/02/28 20:52 KALS 282052Z AUTO VRB05KT 10SM CLR 04/M18 A3019 RMK AO2 SLP240 T00391178 58020